Time;durP1;ratioP1;P1;durP2;ratioP2;P2;SDS_P1;SDS_P2;PMS_P1;PMS_P2;Temp;Humidity;BMP_temperature;BMP_pressure;BME280_temperature;BME280_humidity;BME280_pressure;Samples;Min_cycle;Max_cycle;Signal;HPM_P1;HPM_P2
2023/06/27 00:01:52;;;;;;;6.95;6.03;;;;;;;;;;4386533;32;316879;-82
2023/06/27 00:04:23;;;;;;;8.75;6.12;;;;;;;;;;4377235;32;317068;-84
2023/06/27 00:06:50;;;;;;;7.75;5.28;;;;;;;;;;4386649;32;317117;-82
2023/06/27 00:09:17;;;;;;;6.70;4.87;;;;;;;;;;4376850;32;316889;-82
2023/06/27 00:11:46;;;;;;;7.80;5.07;;;;;;;;;;4387373;32;316979;-82
2023/06/27 00:14:14;;;;;;;7.28;5.85;;;;;;;;;;4387816;32;316686;-82
2023/06/27 00:16:42;;;;;;;10.48;5.05;;;;;;;;;;4379934;32;415884;-89
2023/06/27 00:19:10;;;;;;;12.07;6.12;;;;;;;;;;4387181;32;317927;-83
2023/06/27 00:21:37;;;;;;;7.68;5.93;;;;;;;;;;4376136;32;317805;-81
2023/06/27 00:24:06;;;;;;;5.82;5.07;;;;;;;;;;4387334;32;316742;-81
2023/06/27 00:26:33;;;;;;;6.47;5.77;;;;;;;;;;4376234;32;316752;-82
2023/06/27 00:29:02;;;;;;;9.10;5.50;;;;;;;;;;4386804;32;316921;-81
2023/06/27 00:31:29;;;;;;;8.45;5.20;;;;;;;;;;4374343;32;317031;-81
2023/06/27 00:33:57;;;;;;;7.78;5.53;;;;;;;;;;4387509;32;317023;-82
2023/06/27 00:36:24;;;;;;;5.75;5.22;;;;;;;;;;4374855;32;317250;-82
2023/06/27 00:38:52;;;;;;;6.85;6.15;;;;;;;;;;4386652;32;316721;-81
2023/06/27 00:41:19;;;;;;;11.40;5.68;;;;;;;;;;4375770;32;339467;-82
2023/06/27 00:43:48;;;;;;;6.68;5.37;;;;;;;;;;4384772;32;317739;-82
2023/06/27 00:46:35;;;;;;;8.35;5.87;;;;;;;;;;4376855;32;316776;-84
2023/06/27 00:49:03;;;;;;;8.70;6.32;;;;;;;;;;4386164;32;317043;-82
2023/06/27 00:51:31;;;;;;;8.85;6.37;;;;;;;;;;4374265;32;352261;-82
2023/06/27 00:53:59;;;;;;;7.80;5.62;;;;;;;;;;4386414;32;317558;-82
2023/06/27 00:56:27;;;;;;;8.68;5.82;;;;;;;;;;4374697;32;343209;-82
2023/06/27 00:58:57;;;;;;;7.45;6.05;;;;;;;;;;4385451;32;316786;-81
2023/06/27 01:01:26;;;;;;;7.68;5.57;;;;;;;;;;4375361;32;316987;-81
2023/06/27 01:03:54;;;;;;;7.47;6.03;;;;;;;;;;4385113;32;316718;-81
2023/06/27 01:06:29;;;;;;;9.10;6.37;;;;;;;;;;4376091;32;344488;-81
2023/06/27 01:09:03;;;;;;;8.18;5.20;;;;;;;;;;4387063;32;316951;-81
2023/06/27 01:11:36;;;;;;;6.78;5.82;;;;;;;;;;4376131;32;317034;-82
2023/06/27 01:14:04;;;;;;;7.45;5.80;;;;;;;;;;4386440;32;316752;-82
2023/06/27 01:16:36;;;;;;;7.90;6.40;;;;;;;;;;4376351;32;316874;-81
2023/06/27 01:19:08;;;;;;;10.40;6.57;;;;;;;;;;4368941;32;316870;-81
2023/06/27 01:21:37;;;;;;;8.15;6.20;;;;;;;;;;4392309;32;317874;-81
2023/06/27 01:24:07;;;;;;;16.05;5.57;;;;;;;;;;4372960;32;415743;-81
2023/06/27 01:26:35;;;;;;;5.75;5.18;;;;;;;;;;4385676;32;317646;-81
2023/06/27 01:29:03;;;;;;;6.32;5.35;;;;;;;;;;4373303;32;415952;-81
2023/06/27 01:31:34;;;;;;;6.30;5.70;;;;;;;;;;4385935;32;315706;-82
2023/06/27 01:34:04;;;;;;;8.25;5.90;;;;;;;;;;4372398;32;416009;-82
2023/06/27 01:36:39;;;;;;;9.07;5.53;;;;;;;;;;4385747;32;316713;-82
2023/06/27 01:39:11;;;;;;;8.68;6.32;;;;;;;;;;4372860;32;416224;-82
2023/06/27 01:41:41;;;;;;;8.70;5.80;;;;;;;;;;4372092;32;316816;-82
2023/06/27 01:44:13;;;;;;;5.85;5.25;;;;;;;;;;4384836;32;316631;-82
2023/06/27 01:46:41;;;;;;;6.53;5.65;;;;;;;;;;4371811;32;316756;-82
2023/06/27 01:49:10;;;;;;;8.63;5.60;;;;;;;;;;4386101;32;315417;-82
2023/06/27 01:51:39;;;;;;;10.80;5.45;;;;;;;;;;4373822;32;350947;-82
2023/06/27 01:54:08;;;;;;;8.52;5.65;;;;;;;;;;4385494;32;317801;-83
2023/06/27 01:56:36;;;;;;;8.70;5.28;;;;;;;;;;4384204;32;316842;-82
2023/06/27 01:59:04;;;;;;;10.38;5.47;;;;;;;;;;4384946;32;316625;-82
2023/06/27 02:01:31;;;;;;;9.55;5.57;;;;;;;;;;4372191;32;317822;-83
2023/06/27 02:03:58;;;;;;;9.27;6.32;;;;;;;;;;4381958;32;327964;-82
2023/06/27 02:06:27;;;;;;;9.93;6.00;;;;;;;;;;4383500;32;316768;-83
2023/06/27 02:08:54;;;;;;;7.18;6.00;;;;;;;;;;4375407;32;317095;-82
2023/06/27 02:11:23;;;;;;;10.45;5.80;;;;;;;;;;4386100;32;316581;-82
2023/06/27 02:13:51;;;;;;;10.68;5.72;;;;;;;;;;4374784;32;318222;-82
2023/06/27 02:16:18;;;;;;;11.43;5.78;;;;;;;;;;4385143;32;317679;-82
2023/06/27 02:18:45;;;;;;;6.80;5.68;;;;;;;;;;4374906;32;317826;-82
2023/06/27 02:21:12;;;;;;;7.62;5.82;;;;;;;;;;4386085;32;316595;-88
2023/06/27 02:23:40;;;;;;;6.30;5.70;;;;;;;;;;4375324;32;316941;-81
2023/06/27 02:26:08;;;;;;;8.80;6.28;;;;;;;;;;4388119;32;316800;-81
2023/06/27 02:28:37;;;;;;;8.05;5.65;;;;;;;;;;4388286;32;316851;-82
2023/06/27 02:31:04;;;;;;;8.98;5.85;;;;;;;;;;4378824;32;416129;-81
2023/06/27 02:33:32;;;;;;;12.00;5.70;;;;;;;;;;4391855;32;316958;-82
2023/06/27 02:35:59;;;;;;;8.60;6.40;;;;;;;;;;4377483;32;317657;-81
2023/06/27 02:38:26;;;;;;;8.40;6.10;;;;;;;;;;4388811;32;316809;-81
2023/06/27 02:40:54;;;;;;;7.43;6.15;;;;;;;;;;4377940;32;316777;-82
2023/06/27 02:43:21;;;;;;;8.07;5.85;;;;;;;;;;4388482;32;316679;-81
2023/06/27 02:45:50;;;;;;;11.40;5.50;;;;;;;;;;4378126;32;316647;-89
2023/06/27 02:48:18;;;;;;;9.80;6.03;;;;;;;;;;4387958;32;317860;-83
2023/06/27 02:50:49;;;;;;;6.28;5.62;;;;;;;;;;4377923;32;316778;-89
2023/06/27 02:53:17;;;;;;;5.68;5.18;;;;;;;;;;4388334;32;316898;-82
2023/06/27 02:55:44;;;;;;;10.00;6.20;;;;;;;;;;4378046;32;316834;-82
2023/06/27 02:58:12;;;;;;;11.43;6.70;;;;;;;;;;4388219;32;317811;-88
2023/06/27 03:00:39;;;;;;;11.00;7.45;;;;;;;;;;4377461;32;317830;-88
2023/06/27 03:03:08;;;;;;;22.02;11.82;;;;;;;;;;4387758;32;317804;-82
2023/06/27 03:05:35;;;;;;;19.58;10.43;;;;;;;;;;4388109;32;318674;-82
2023/06/27 03:08:03;;;;;;;9.93;7.78;;;;;;;;;;4375697;32;417878;-82
2023/06/27 03:10:30;;;;;;;9.48;7.12;;;;;;;;;;4386919;32;317083;-82
2023/06/27 03:12:57;;;;;;;7.70;6.50;;;;;;;;;;4378136;32;315622;-82
2023/06/27 03:15:26;;;;;;;8.07;6.43;;;;;;;;;;4387466;32;316696;-82
2023/06/27 03:17:54;;;;;;;9.30;7.05;;;;;;;;;;4377839;32;316653;-87
2023/06/27 03:20:22;;;;;;;8.45;6.20;;;;;;;;;;4387377;32;316895;-82
2023/06/27 03:22:50;;;;;;;8.13;6.18;;;;;;;;;;4375978;32;316898;-82
2023/06/27 03:25:17;;;;;;;8.80;6.78;;;;;;;;;;4388238;32;316873;-82
2023/06/27 03:27:45;;;;;;;9.63;7.00;;;;;;;;;;4376700;32;316872;-82
2023/06/27 03:30:14;;;;;;;8.85;6.53;;;;;;;;;;4388252;32;316877;-82
2023/06/27 03:32:41;;;;;;;14.13;8.18;;;;;;;;;;4375897;32;316815;-83
2023/06/27 03:35:09;;;;;;;9.95;6.57;;;;;;;;;;4388101;32;318047;-82
2023/06/27 03:37:38;;;;;;;9.85;7.22;;;;;;;;;;4378593;32;316790;-82
2023/06/27 03:40:07;;;;;;;10.52;7.82;;;;;;;;;;4388179;32;316665;-81
2023/06/27 03:42:34;;;;;;;16.75;9.38;;;;;;;;;;4385435;32;317805;-81
2023/06/27 03:45:01;;;;;;;17.75;10.05;;;;;;;;;;4377541;32;417018;-81
2023/06/27 03:47:30;;;;;;;8.13;5.82;;;;;;;;;;4390806;32;318768;-82
2023/06/27 03:49:58;;;;;;;10.35;6.62;;;;;;;;;;4375824;32;315492;-81
2023/06/27 03:52:25;;;;;;;8.88;6.80;;;;;;;;;;4387204;32;317771;-81
2023/06/27 03:54:54;;;;;;;7.90;6.90;;;;;;;;;;4376816;32;316808;-86
2023/06/27 03:57:22;;;;;;;18.23;7.05;;;;;;;;;;4387600;32;316806;-80
2023/06/27 03:59:50;;;;;;;20.90;8.38;;;;;;;;;;4376681;32;317789;-84
2023/06/27 04:02:18;;;;;;;15.25;9.93;;;;;;;;;;4387404;32;317751;-85
2023/06/27 04:04:45;;;;;;;17.27;9.45;;;;;;;;;;4376111;32;317726;-85
2023/06/27 04:07:14;;;;;;;16.60;8.55;;;;;;;;;;4387621;32;317608;-83
2023/06/27 04:09:42;;;;;;;11.30;8.13;;;;;;;;;;4376913;32;317732;-83
2023/06/27 04:12:12;;;;;;;10.27;7.85;;;;;;;;;;4386162;32;317784;-82
2023/06/27 04:14:39;;;;;;;13.23;7.70;;;;;;;;;;4373654;32;317767;-82
2023/06/27 04:17:07;;;;;;;13.15;7.40;;;;;;;;;;4387271;32;317888;-89
2023/06/27 04:19:34;;;;;;;10.10;7.70;;;;;;;;;;4387128;32;317862;-82
2023/06/27 04:22:03;;;;;;;11.68;6.78;;;;;;;;;;4372418;32;416925;-84
2023/06/27 04:24:30;;;;;;;11.70;6.85;;;;;;;;;;4385582;32;317769;-82
2023/06/27 04:26:57;;;;;;;11.10;7.60;;;;;;;;;;4376644;32;317714;-82
2023/06/27 04:29:26;;;;;;;11.27;6.65;;;;;;;;;;4386526;32;317775;-81
2023/06/27 04:31:54;;;;;;;9.23;6.72;;;;;;;;;;4377220;32;317739;-81
2023/06/27 04:34:21;;;;;;;12.15;6.93;;;;;;;;;;4386324;32;316746;-81
2023/06/27 04:36:51;;;;;;;7.95;5.90;;;;;;;;;;4376813;32;318128;-81
2023/06/27 04:39:18;;;;;;;12.40;6.90;;;;;;;;;;4386490;32;316739;-81
2023/06/27 04:41:45;;;;;;;7.72;6.82;;;;;;;;;;4376331;32;317812;-88
2023/06/27 04:44:13;;;;;;;10.60;6.82;;;;;;;;;;4387068;32;316636;-80
2023/06/27 04:46:42;;;;;;;9.52;7.10;;;;;;;;;;4375021;32;317576;-77
2023/06/27 04:49:09;;;;;;;10.63;6.95;;;;;;;;;;4386308;32;316488;-78
2023/06/27 04:51:36;;;;;;;10.27;7.15;;;;;;;;;;4376738;32;317630;-79
2023/06/27 04:54:04;;;;;;;12.57;6.78;;;;;;;;;;4385738;32;317667;-77
2023/06/27 04:56:33;;;;;;;9.43;7.10;;;;;;;;;;4386320;32;317559;-83
2023/06/27 04:59:00;;;;;;;10.75;6.60;;;;;;;;;;4375680;32;316490;-79
2023/06/27 05:01:27;;;;;;;9.80;7.53;;;;;;;;;;4386735;32;317691;-80
2023/06/27 05:04:04;;;;;;;9.90;6.60;;;;;;;;;;4375274;32;316877;-78
2023/06/27 05:06:31;;;;;;;11.60;7.55;;;;;;;;;;4385728;32;316791;-89
2023/06/27 05:08:58;;;;;;;8.13;7.12;;;;;;;;;;4376328;32;317729;-79
2023/06/27 05:11:26;;;;;;;12.65;7.03;;;;;;;;;;4386431;32;316600;-89
2023/06/27 05:13:53;;;;;;;10.80;7.10;;;;;;;;;;4375168;32;317593;-77
2023/06/27 05:16:21;;;;;;;11.02;7.70;;;;;;;;;;4386521;32;317839;-78
2023/06/27 05:18:48;;;;;;;12.60;7.47;;;;;;;;;;4373538;32;317786;-79
2023/06/27 05:21:17;;;;;;;12.32;7.50;;;;;;;;;;4385847;32;317558;-78
2023/06/27 05:23:45;;;;;;;19.30;7.80;;;;;;;;;;4375514;32;318015;-77
2023/06/27 05:26:12;;;;;;;14.45;7.00;;;;;;;;;;4385405;32;317899;-78
2023/06/27 05:28:40;;;;;;;13.27;8.25;;;;;;;;;;4375373;32;317830;-80
2023/06/27 05:31:07;;;;;;;11.50;6.93;;;;;;;;;;4384396;32;318088;-80
2023/06/27 05:33:35;;;;;;;9.70;6.55;;;;;;;;;;4385687;32;317727;-78
2023/06/27 05:36:03;;;;;;;10.40;7.12;;;;;;;;;;4373102;32;419426;-79
2023/06/27 05:38:32;;;;;;;8.18;7.05;;;;;;;;;;4384886;32;318031;-79
2023/06/27 05:40:59;;;;;;;10.63;6.80;;;;;;;;;;4374615;32;317054;-79
2023/06/27 05:43:27;;;;;;;12.82;7.53;;;;;;;;;;4384989;32;317740;-79
2023/06/27 05:45:55;;;;;;;13.00;8.10;;;;;;;;;;4374505;32;317941;-82
2023/06/27 05:48:22;;;;;;;11.00;7.40;;;;;;;;;;4384365;32;318228;-81
2023/06/27 05:50:50;;;;;;;9.85;7.18;;;;;;;;;;4374466;32;318147;-79
2023/06/27 05:53:17;;;;;;;12.32;8.32;;;;;;;;;;4385247;32;317053;-78
2023/06/27 05:55:47;;;;;;;11.93;7.68;;;;;;;;;;4375062;32;317945;-78
2023/06/27 05:58:15;;;;;;;9.88;7.12;;;;;;;;;;4384170;32;317857;-85
2023/06/27 06:00:42;;;;;;;19.62;7.95;;;;;;;;;;4377733;32;316897;-80
2023/06/27 06:03:10;;;;;;;8.52;7.18;;;;;;;;;;4391234;32;317868;-80
2023/06/27 06:05:38;;;;;;;10.80;8.00;;;;;;;;;;4381313;32;316428;-81
2023/06/27 06:08:05;;;;;;;12.88;7.40;;;;;;;;;;4387112;32;317768;-80
2023/06/27 06:10:34;;;;;;;8.52;7.20;;;;;;;;;;4391034;32;317822;-79
2023/06/27 06:13:03;;;;;;;11.75;6.93;;;;;;;;;;4377036;32;416365;-80
2023/06/27 06:15:31;;;;;;;8.43;7.30;;;;;;;;;;4390449;32;317869;-79
2023/06/27 06:17:58;;;;;;;9.40;6.85;;;;;;;;;;4376832;32;317055;-79
2023/06/27 06:20:26;;;;;;;8.43;6.78;;;;;;;;;;4389945;32;316974;-79
2023/06/27 06:22:53;;;;;;;7.67;6.50;;;;;;;;;;4377872;32;316765;-80
2023/06/27 06:25:20;;;;;;;7.70;6.62;;;;;;;;;;4390817;32;316797;-81
2023/06/27 06:27:48;;;;;;;10.10;6.82;;;;;;;;;;4380113;32;316955;-80
2023/06/27 06:30:17;;;;;;;15.48;7.87;;;;;;;;;;4389431;32;318167;-82
2023/06/27 06:32:44;;;;;;;10.60;6.78;;;;;;;;;;4377513;32;317921;-79
2023/06/27 06:35:12;;;;;;;10.48;8.25;;;;;;;;;;4390363;32;317671;-79
2023/06/27 06:37:39;;;;;;;9.95;7.65;;;;;;;;;;4376114;32;317773;-79
2023/06/27 06:40:08;;;;;;;14.18;7.75;;;;;;;;;;4389068;32;316905;-83
2023/06/27 06:42:36;;;;;;;8.05;6.72;;;;;;;;;;4390275;32;317700;-85
2023/06/27 06:45:04;;;;;;;8.98;7.18;;;;;;;;;;4377820;32;415807;-79
2023/06/27 06:47:33;;;;;;;17.27;8.48;;;;;;;;;;4390291;32;317012;-85
2023/06/27 06:50:01;;;;;;;14.05;7.03;;;;;;;;;;4379567;32;317997;-79
2023/06/27 06:52:28;;;;;;;12.02;7.12;;;;;;;;;;4390141;32;326646;-79
2023/06/27 06:54:55;;;;;;;13.27;7.37;;;;;;;;;;4379707;32;317903;-79
2023/06/27 06:57:23;;;;;;;12.82;7.28;;;;;;;;;;4390386;32;317944;-79
2023/06/27 06:59:50;;;;;;;10.38;7.28;;;;;;;;;;4379633;32;318458;-79
2023/06/27 07:02:18;;;;;;;11.95;6.45;;;;;;;;;;4390544;32;318049;-80
2023/06/27 07:04:47;;;;;;;9.23;6.32;;;;;;;;;;4379495;32;317885;-86
2023/06/27 07:07:14;;;;;;;11.23;7.47;;;;;;;;;;4388362;32;316761;-79
2023/06/27 07:09:42;;;;;;;10.23;6.43;;;;;;;;;;4378863;32;317776;-80
2023/06/27 07:12:09;;;;;;;16.52;6.97;;;;;;;;;;4389115;32;317812;-80
2023/06/27 07:14:37;;;;;;;15.90;7.20;;;;;;;;;;4377761;32;317986;-81
2023/06/27 07:17:06;;;;;;;13.43;7.57;;;;;;;;;;4388205;32;318010;-85
2023/06/27 07:19:33;;;;;;;15.98;8.15;;;;;;;;;;4387033;32;328810;-79
2023/06/27 07:22:02;;;;;;;18.92;6.95;;;;;;;;;;4375887;32;317967;-79
2023/06/27 07:24:29;;;;;;;10.93;6.87;;;;;;;;;;4387314;32;317935;-79
2023/06/27 07:26:57;;;;;;;6.95;5.95;;;;;;;;;;4377090;32;317835;-79
2023/06/27 07:29:24;;;;;;;7.57;5.68;;;;;;;;;;4388222;32;316819;-79
2023/06/27 07:31:51;;;;;;;8.80;6.28;;;;;;;;;;4375856;32;317006;-79
2023/06/27 07:34:19;;;;;;;9.32;6.65;;;;;;;;;;4387901;32;316936;-79
2023/06/27 07:36:47;;;;;;;7.00;6.03;;;;;;;;;;4376690;32;316801;-79
2023/06/27 07:39:16;;;;;;;9.70;5.80;;;;;;;;;;4386659;32;316995;-79
2023/06/27 07:41:43;;;;;;;6.30;5.55;;;;;;;;;;4375847;32;316982;-79
2023/06/27 07:44:11;;;;;;;10.70;5.82;;;;;;;;;;4388105;32;316690;-79
2023/06/27 07:46:38;;;;;;;10.80;5.72;;;;;;;;;;4374065;32;317883;-79
2023/06/27 07:49:06;;;;;;;7.18;5.20;;;;;;;;;;4386791;32;318061;-79
2023/06/27 07:51:33;;;;;;;11.50;5.87;;;;;;;;;;4387572;32;315639;-79
2023/06/27 07:54:02;;;;;;;6.95;5.80;;;;;;;;;;4375938;32;317823;-79
2023/06/27 07:56:31;;;;;;;6.32;5.50;;;;;;;;;;4386613;32;317130;-79
2023/06/27 07:58:59;;;;;;;7.62;4.72;;;;;;;;;;4376228;32;317225;-79
2023/06/27 08:01:27;;;;;;;7.37;4.70;;;;;;;;;;4386599;32;316848;-78
2023/06/27 08:03:54;;;;;;;6.30;4.93;;;;;;;;;;4375928;32;316804;-79
2023/06/27 08:06:22;;;;;;;5.80;4.32;;;;;;;;;;4386005;32;316876;-79
2023/06/27 08:08:49;;;;;;;6.07;3.95;;;;;;;;;;4376990;32;317006;-79
2023/06/27 08:11:17;;;;;;;7.05;5.15;;;;;;;;;;4386352;32;316765;-79
2023/06/27 08:13:46;;;;;;;8.05;4.47;;;;;;;;;;4375850;32;317129;-79
2023/06/27 08:16:13;;;;;;;5.80;4.55;;;;;;;;;;4387343;32;316789;-79
2023/06/27 08:18:41;;;;;;;6.75;4.90;;;;;;;;;;4377127;32;316949;-79
2023/06/27 08:21:08;;;;;;;7.15;4.60;;;;;;;;;;4384700;32;316931;-79
2023/06/27 08:23:36;;;;;;;6.85;5.00;;;;;;;;;;4386583;32;316882;-79
2023/06/27 08:26:03;;;;;;;5.62;4.32;;;;;;;;;;4372664;32;418883;-79
2023/06/27 08:28:31;;;;;;;9.57;4.72;;;;;;;;;;4385951;32;316898;-79
2023/06/27 08:31:00;;;;;;;5.87;4.32;;;;;;;;;;4374735;32;352514;-79
2023/06/27 08:33:27;;;;;;;6.47;4.90;;;;;;;;;;4385102;32;356050;-79
2023/06/27 08:35:54;;;;;;;7.32;4.43;;;;;;;;;;4375691;32;316913;-79
2023/06/27 08:38:22;;;;;;;6.25;4.40;;;;;;;;;;4386546;32;317044;-79
2023/06/27 08:40:54;;;;;;;10.00;4.87;;;;;;;;;;4375093;32;316721;-78
2023/06/27 08:43:22;;;;;;;12.55;4.87;;;;;;;;;;4385439;32;318330;-78
2023/06/27 08:45:50;;;;;;;8.40;4.80;;;;;;;;;;4375548;32;318091;-78
2023/06/27 08:48:19;;;;;;;6.15;5.47;;;;;;;;;;4386566;32;316935;-79
2023/06/27 08:50:51;;;;;;;5.68;4.50;;;;;;;;;;4376448;32;316837;-79
2023/06/27 08:53:21;;;;;;;11.70;4.65;;;;;;;;;;4385545;32;316930;-78
2023/06/27 08:55:58;;;;;;;6.32;5.10;;;;;;;;;;4374539;32;317714;-79
2023/06/27 08:58:32;;;;;;;5.50;4.30;;;;;;;;;;4386039;32;317208;-78
2023/06/27 09:01:00;;;;;;;6.95;4.10;;;;;;;;;;4375510;32;316904;-78
2023/06/27 09:03:30;;;;;;;5.62;3.80;;;;;;;;;;4386048;32;317025;-79
2023/06/27 09:05:57;;;;;;;6.12;4.85;;;;;;;;;;4376484;32;316942;-78
2023/06/27 09:08:25;;;;;;;6.32;4.82;;;;;;;;;;4385937;32;316716;-78
2023/06/27 09:10:52;;;;;;;5.80;5.20;;;;;;;;;;4375158;32;316778;-78
2023/06/27 09:13:20;;;;;;;6.10;4.18;;;;;;;;;;4386365;32;316872;-79
2023/06/27 09:15:48;;;;;;;6.18;4.25;;;;;;;;;;4375576;32;316889;-78
2023/06/27 09:18:16;;;;;;;5.18;4.32;;;;;;;;;;4384587;32;324450;-78
2023/06/27 09:20:45;;;;;;;8.02;4.25;;;;;;;;;;4375292;32;316885;-78
2023/06/27 09:23:13;;;;;;;5.12;3.67;;;;;;;;;;4385933;32;317147;-78
2023/06/27 09:25:40;;;;;;;6.10;4.78;;;;;;;;;;4372302;32;316761;-78
2023/06/27 09:28:18;;;;;;;6.40;4.30;;;;;;;;;;4385773;32;316859;-78
2023/06/27 09:30:55;;;;;;;6.67;4.10;;;;;;;;;;4373673;32;316996;-78
2023/06/27 09:33:23;;;;;;;5.85;3.95;;;;;;;;;;4385362;32;316924;-79
2023/06/27 09:35:52;;;;;;;6.82;4.65;;;;;;;;;;4375184;32;325643;-79
2023/06/27 09:38:20;;;;;;;8.98;4.60;;;;;;;;;;4385775;32;317002;-79
2023/06/27 09:40:49;;;;;;;4.47;4.07;;;;;;;;;;4376104;32;316749;-78
2023/06/27 09:43:21;;;;;;;6.28;4.15;;;;;;;;;;4384606;32;316761;-78
2023/06/27 09:45:58;;;;;;;5.78;4.22;;;;;;;;;;4375914;32;317006;-79
2023/06/27 09:48:25;;;;;;;6.43;4.55;;;;;;;;;;4385354;32;316626;-79
2023/06/27 09:50:59;;;;;;;6.18;4.55;;;;;;;;;;4372084;32;316759;-80
2023/06/27 09:53:26;;;;;;;9.13;4.07;;;;;;;;;;4385263;32;316835;-79
2023/06/27 09:55:58;;;;;;;8.35;4.65;;;;;;;;;;4375228;32;316921;-80
2023/06/27 09:58:29;;;;;;;8.18;4.80;;;;;;;;;;4384665;32;316719;-80
2023/06/27 10:01:05;;;;;;;6.25;4.25;;;;;;;;;;4373226;32;316709;-80
2023/06/27 10:03:33;;;;;;;7.97;4.18;;;;;;;;;;4384531;32;317015;-80
2023/06/27 10:06:02;;;;;;;9.07;4.75;;;;;;;;;;4375304;32;317134;-80
2023/06/27 10:08:30;;;;;;;4.68;3.75;;;;;;;;;;4384451;32;316813;-80
2023/06/27 10:10:58;;;;;;;6.12;4.32;;;;;;;;;;4375077;32;316521;-79
2023/06/27 10:13:25;;;;;;;4.53;4.10;;;;;;;;;;4384166;32;316815;-78
2023/06/27 10:15:53;;;;;;;5.30;4.20;;;;;;;;;;4374603;32;316833;-79
2023/06/27 10:18:21;;;;;;;5.28;4.10;;;;;;;;;;4382770;32;348929;-78
2023/06/27 10:20:49;;;;;;;4.53;3.78;;;;;;;;;;4372548;32;316744;-79
2023/06/27 10:23:18;;;;;;;5.15;4.43;;;;;;;;;;4385661;32;316984;-78
2023/06/27 10:25:45;;;;;;;4.87;4.10;;;;;;;;;;4375845;32;316599;-79
2023/06/27 10:28:15;;;;;;;5.37;3.85;;;;;;;;;;4384739;32;316586;-78
2023/06/27 10:30:46;;;;;;;4.22;3.72;;;;;;;;;;4374646;32;316458;-79
2023/06/27 10:33:22;;;;;;;9.85;5.45;;;;;;;;;;4373074;32;316762;-79
2023/06/27 10:35:57;;;;;;;8.25;4.10;;;;;;;;;;4379295;32;317130;-79
2023/06/27 10:38:36;;;;;;;7.50;4.07;;;;;;;;;;4383663;32;326209;-79
2023/06/27 10:41:33;;;;;;;7.57;3.55;;;;;;;;;;4374307;32;317070;-79
2023/06/27 10:44:10;;;;;;;4.15;3.42;;;;;;;;;;4374233;32;317400;-78
2023/06/27 10:46:38;;;;;;;6.30;3.62;;;;;;;;;;4386134;32;317221;-79
2023/06/27 10:49:07;;;;;;;4.50;3.47;;;;;;;;;;4377108;32;317059;-80
2023/06/27 10:51:36;;;;;;;4.20;3.33;;;;;;;;;;4388241;32;316933;-78
2023/06/27 10:54:17;;;;;;;4.95;3.30;;;;;;;;;;4377424;32;317007;-78
2023/06/27 10:56:45;;;;;;;7.18;4.45;;;;;;;;;;4374991;32;316987;-79
2023/06/27 10:59:15;;;;;;;7.35;3.40;;;;;;;;;;4388051;32;316602;-78
2023/06/27 11:01:43;;;;;;;4.55;2.95;;;;;;;;;;4377516;32;316741;-81
2023/06/27 11:04:17;;;;;;;3.62;3.10;;;;;;;;;;4387784;32;317016;-80
2023/06/27 11:06:46;;;;;;;4.80;3.05;;;;;;;;;;4373321;32;328165;-79
2023/06/27 11:09:17;;;;;;;3.60;3.17;;;;;;;;;;4387232;32;316715;-79
2023/06/27 11:11:54;;;;;;;4.93;2.62;;;;;;;;;;4377611;32;317122;-79
2023/06/27 11:14:35;;;;;;;7.65;3.30;;;;;;;;;;4388429;32;316668;-79
2023/06/27 11:17:04;;;;;;;7.65;3.62;;;;;;;;;;4377326;32;316950;-78
2023/06/27 11:19:33;;;;;;;8.20;3.53;;;;;;;;;;4388225;32;316981;-78
2023/06/27 11:22:01;;;;;;;3.63;3.10;;;;;;;;;;4375499;32;317110;-78
2023/06/27 11:24:30;;;;;;;4.55;3.60;;;;;;;;;;4385371;32;316683;-78
2023/06/27 11:26:58;;;;;;;3.47;2.90;;;;;;;;;;4377706;32;317050;-79
2023/06/27 11:29:27;;;;;;;4.78;3.20;;;;;;;;;;4388294;32;317015;-79
2023/06/27 11:31:56;;;;;;;5.93;3.20;;;;;;;;;;4376154;32;317056;-79
2023/06/27 11:34:24;;;;;;;3.20;2.58;;;;;;;;;;4387372;32;316860;-78
2023/06/27 11:36:51;;;;;;;4.12;2.97;;;;;;;;;;4376107;32;316915;-79
2023/06/27 11:39:19;;;;;;;4.22;2.72;;;;;;;;;;4387775;32;316714;-79
2023/06/27 11:41:47;;;;;;;4.43;2.53;;;;;;;;;;4374891;32;362482;-79
2023/06/27 11:44:16;;;;;;;9.23;3.28;;;;;;;;;;4387995;32;316602;-79
2023/06/27 11:46:49;;;;;;;4.50;2.90;;;;;;;;;;4377830;32;317030;-80
2023/06/27 11:49:17;;;;;;;7.32;3.70;;;;;;;;;;4386920;32;316766;-79
2023/06/27 11:51:44;;;;;;;4.97;3.00;;;;;;;;;;4376586;32;316782;-80
2023/06/27 11:54:12;;;;;;;4.18;2.78;;;;;;;;;;4387842;32;317085;-79
2023/06/27 11:56:40;;;;;;;3.53;3.20;;;;;;;;;;4386353;32;316852;-79
2023/06/27 11:59:09;;;;;;;4.25;2.85;;;;;;;;;;4373437;32;388265;-79
2023/06/27 12:01:41;;;;;;;4.60;3.00;;;;;;;;;;4386900;32;345224;-79
2023/06/27 12:04:14;;;;;;;3.20;2.70;;;;;;;;;;4374685;32;416221;-78
2023/06/27 12:06:43;;;;;;;4.57;2.60;;;;;;;;;;4387061;32;316923;-78
2023/06/27 12:09:20;;;;;;;3.50;2.22;;;;;;;;;;4373799;32;416254;-78
2023/06/27 12:11:53;;;;;;;3.22;2.28;;;;;;;;;;4374108;32;317053;-78
2023/06/27 12:14:26;;;;;;;5.50;2.70;;;;;;;;;;4387700;32;316854;-78
2023/06/27 12:16:54;;;;;;;2.55;2.30;;;;;;;;;;4377545;32;316738;-77
2023/06/27 12:19:22;;;;;;;6.82;2.72;;;;;;;;;;4385383;32;357031;-77
2023/06/27 12:21:51;;;;;;;3.15;2.85;;;;;;;;;;4376502;32;317125;-78
2023/06/27 12:24:19;;;;;;;4.65;3.12;;;;;;;;;;4387541;32;316845;-78
2023/06/27 12:26:47;;;;;;;6.80;3.03;;;;;;;;;;4376608;32;316716;-78
2023/06/27 12:29:15;;;;;;;4.68;3.40;;;;;;;;;;4387547;32;317041;-78
2023/06/27 12:31:44;;;;;;;6.95;3.55;;;;;;;;;;4375299;32;328026;-78
2023/06/27 12:34:11;;;;;;;4.62;2.97;;;;;;;;;;4387585;32;316810;-78
2023/06/27 12:36:38;;;;;;;4.30;2.90;;;;;;;;;;4386007;32;317162;-78
2023/06/27 12:39:06;;;;;;;4.65;2.92;;;;;;;;;;4376767;32;316816;-78
2023/06/27 12:41:33;;;;;;;5.60;2.83;;;;;;;;;;4385953;32;327409;-78
2023/06/27 12:44:01;;;;;;;3.97;3.20;;;;;;;;;;4376858;32;316844;-78
2023/06/27 12:46:28;;;;;;;6.18;4.15;;;;;;;;;;4386750;32;317057;-78
2023/06/27 12:48:57;;;;;;;5.90;2.87;;;;;;;;;;4375462;32;316870;-78
2023/06/27 12:51:24;;;;;;;7.37;2.62;;;;;;;;;;4385459;32;324890;-78
2023/06/27 12:53:52;;;;;;;7.85;2.80;;;;;;;;;;4376939;32;317025;-78
2023/06/27 12:56:19;;;;;;;4.70;2.83;;;;;;;;;;4387243;32;317104;-78
2023/06/27 12:58:47;;;;;;;4.28;2.40;;;;;;;;;;4375436;32;317058;-78
2023/06/27 13:01:16;;;;;;;5.43;2.30;;;;;;;;;;4385825;32;316814;-78
2023/06/27 13:03:43;;;;;;;3.17;2.67;;;;;;;;;;4376015;32;316919;-78
2023/06/27 13:06:12;;;;;;;5.37;2.55;;;;;;;;;;4387085;32;317081;-78
2023/06/27 13:08:40;;;;;;;5.60;3.03;;;;;;;;;;4385472;32;316976;-78
2023/06/27 13:11:07;;;;;;;4.57;2.78;;;;;;;;;;4372972;32;416332;-78
2023/06/27 13:13:34;;;;;;;3.65;2.78;;;;;;;;;;4385977;32;316753;-78
2023/06/27 13:16:02;;;;;;;4.53;2.22;;;;;;;;;;4376861;32;316886;-78
2023/06/27 13:18:30;;;;;;;3.83;2.70;;;;;;;;;;4385526;32;334503;-78
2023/06/27 13:20:58;;;;;;;4.65;2.90;;;;;;;;;;4374129;32;316969;-78
2023/06/27 13:23:27;;;;;;;2.33;2.12;;;;;;;;;;4384555;32;348366;-78
2023/06/27 13:25:54;;;;;;;6.70;2.35;;;;;;;;;;4374371;32;316841;-78
2023/06/27 13:28:22;;;;;;;4.37;3.10;;;;;;;;;;4386769;32;316916;-78
2023/06/27 13:30:49;;;;;;;12.00;3.60;;;;;;;;;;4376307;32;316690;-78
2023/06/27 13:33:17;;;;;;;4.10;2.75;;;;;;;;;;4385631;32;318298;-78
2023/06/27 13:35:44;;;;;;;5.05;3.40;;;;;;;;;;4375689;32;320823;-79
2023/06/27 13:38:13;;;;;;;3.00;2.70;;;;;;;;;;4385315;32;316944;-78
2023/06/27 13:40:43;;;;;;;4.62;3.05;;;;;;;;;;4384256;32;316862;-78
2023/06/27 13:43:10;;;;;;;3.12;2.83;;;;;;;;;;4372061;32;417034;-78
2023/06/27 13:45:38;;;;;;;6.05;3.30;;;;;;;;;;4386154;32;316731;-78
2023/06/27 13:48:06;;;;;;;2.90;2.53;;;;;;;;;;4374243;32;317187;-78
2023/06/27 13:50:33;;;;;;;4.72;3.25;;;;;;;;;;4386030;32;317167;-78
2023/06/27 13:53:00;;;;;;;9.00;3.17;;;;;;;;;;4374801;32;340645;-79
2023/06/27 13:55:28;;;;;;;5.18;3.10;;;;;;;;;;4385317;32;316859;-78
2023/06/27 13:57:57;;;;;;;3.42;2.90;;;;;;;;;;4376258;32;316721;-78
2023/06/27 14:00:25;;;;;;;5.57;3.30;;;;;;;;;;4386217;32;316783;-78
2023/06/27 14:02:52;;;;;;;5.47;3.50;;;;;;;;;;4376135;32;316952;-79
2023/06/27 14:05:19;;;;;;;3.83;2.87;;;;;;;;;;4384774;32;317044;-79
2023/06/27 14:07:48;;;;;;;4.87;2.92;;;;;;;;;;4373628;32;316707;-79
2023/06/27 14:10:15;;;;;;;4.60;3.55;;;;;;;;;;4386031;32;316671;-78
2023/06/27 14:12:42;;;;;;;3.65;3.10;;;;;;;;;;4374184;32;316661;-79
2023/06/27 14:15:12;;;;;;;4.20;3.17;;;;;;;;;;4385431;32;316731;-84
2023/06/27 14:17:39;;;;;;;7.37;3.40;;;;;;;;;;4385983;32;316624;-80
2023/06/27 14:20:09;;;;;;;3.33;2.92;;;;;;;;;;4373057;32;419216;-80
2023/06/27 14:22:36;;;;;;;4.75;2.60;;;;;;;;;;4388202;32;316722;-81
2023/06/27 14:25:05;;;;;;;3.85;3.17;;;;;;;;;;4376451;32;355343;-81
2023/06/27 14:27:33;;;;;;;6.20;3.30;;;;;;;;;;4386946;32;316848;-81
2023/06/27 14:30:00;;;;;;;4.40;2.87;;;;;;;;;;4378931;32;316874;-83
2023/06/27 14:32:29;;;;;;;3.78;2.83;;;;;;;;;;4389262;32;316852;-84
2023/06/27 14:34:57;;;;;;;11.45;3.30;;;;;;;;;;4378959;32;316962;-84